createdAt,value
2023-03-06T00:00:57.431Z,2.60
2023-03-06T00:03:27.789Z,2.60
2023-03-06T00:05:58.161Z,2.60
2023-03-06T00:08:26.558Z,2.60
2023-03-06T00:10:53.714Z,2.50
2023-03-06T00:13:20.619Z,2.50
2023-03-06T00:15:48.172Z,2.40
2023-03-06T00:18:15.534Z,2.50
2023-03-06T00:20:44.020Z,2.50
2023-03-06T00:23:12.109Z,2.50
2023-03-06T00:25:43.321Z,2.60
2023-03-06T00:28:10.295Z,2.50
2023-03-06T00:30:37.558Z,2.60
2023-03-06T00:33:05.036Z,2.60
2023-03-06T00:35:32.097Z,2.50
2023-03-06T00:38:00.221Z,2.50
2023-03-06T00:40:27.709Z,2.50
2023-03-06T00:42:54.666Z,2.50
2023-03-06T00:45:22.049Z,2.50
2023-03-06T00:47:49.054Z,2.50
2023-03-06T00:50:15.998Z,2.40
2023-03-06T00:52:43.116Z,2.40
2023-03-06T00:55:10.484Z,2.50
2023-03-06T00:57:38.003Z,2.40
2023-03-06T01:00:06.439Z,2.40
2023-03-06T01:02:34.390Z,2.40
2023-03-06T01:05:01.629Z,2.40
2023-03-06T01:07:33.442Z,2.40
2023-03-06T01:10:00.532Z,2.30
2023-03-06T01:12:27.748Z,2.30
2023-03-06T01:14:54.612Z,2.30
2023-03-06T01:17:21.461Z,2.40
2023-03-06T01:19:48.298Z,2.50
2023-03-06T01:22:15.998Z,2.50
2023-03-06T01:24:42.879Z,2.50
2023-03-06T01:27:10.219Z,2.50
2023-03-06T01:29:37.444Z,2.50
2023-03-06T01:32:05.678Z,2.50
2023-03-06T01:34:32.776Z,2.40
2023-03-06T01:36:59.807Z,2.40
2023-03-06T01:39:28.714Z,2.40
2023-03-06T01:41:57.261Z,2.40
2023-03-06T01:44:24.158Z,2.30
2023-03-06T01:46:51.134Z,2.30
2023-03-06T01:49:23.165Z,2.30
2023-03-06T01:52:17.423Z,2.30
2023-03-06T01:54:51.276Z,2.20
2023-03-06T01:57:21.975Z,2.30
2023-03-06T01:59:53.948Z,2.20
2023-03-06T02:02:21.091Z,2.20
2023-03-06T02:04:48.296Z,2.20
2023-03-06T02:07:16.123Z,2.20
2023-03-06T02:09:43.368Z,2.20
2023-03-06T02:12:13.166Z,2.20
2023-03-06T02:14:42.695Z,2.20
2023-03-06T02:17:14.176Z,2.20
2023-03-06T02:20:01.832Z,2.20
2023-03-06T02:22:45.826Z,2.20
2023-03-06T02:25:35.198Z,2.20
2023-03-06T02:28:04.956Z,2.20
2023-03-06T02:30:32.081Z,2.20
2023-03-06T02:32:59.488Z,2.10
2023-03-06T02:35:32.820Z,2.10
2023-03-06T02:38:11.546Z,2.20
2023-03-06T02:40:38.733Z,2.10
2023-03-06T02:43:05.691Z,2.10
2023-03-06T02:45:38.487Z,2.10
2023-03-06T02:48:05.857Z,2.10
2023-03-06T02:50:33.551Z,2.20
2023-03-06T02:53:00.441Z,2.20
2023-03-06T02:55:27.961Z,2.10
2023-03-06T02:57:55.033Z,2.20
2023-03-06T03:00:23.892Z,2.20
2023-03-06T03:02:50.826Z,2.20
2023-03-06T03:05:17.879Z,2.20
2023-03-06T03:07:47.931Z,2.20
2023-03-06T03:10:15.083Z,2.20
2023-03-06T03:12:42.413Z,2.30
2023-03-06T03:15:09.828Z,2.20
2023-03-06T03:17:37.868Z,2.20
2023-03-06T03:20:07.907Z,2.30
2023-03-06T03:22:35.417Z,2.30
2023-03-06T03:25:02.508Z,2.30
2023-03-06T03:27:29.346Z,2.30
2023-03-06T03:29:59.943Z,2.30
2023-03-06T03:32:27.444Z,2.30
2023-03-06T03:34:56.493Z,2.30
2023-03-06T03:37:24.044Z,2.30
2023-03-06T03:39:51.000Z,2.30
2023-03-06T03:42:19.405Z,2.30
2023-03-06T03:44:46.589Z,2.30
2023-03-06T03:47:13.748Z,2.30
2023-03-06T03:49:40.681Z,2.40
2023-03-06T03:52:07.470Z,2.30
2023-03-06T03:54:34.732Z,2.30
2023-03-06T03:57:02.051Z,2.30
2023-03-06T03:59:28.874Z,2.30
2023-03-06T04:01:56.090Z,2.40
2023-03-06T04:04:25.202Z,2.30
2023-03-06T04:06:52.520Z,2.30
2023-03-06T04:09:19.775Z,2.30
2023-03-06T04:11:47.606Z,2.40
2023-03-06T04:14:14.458Z,2.40
2023-03-06T04:16:41.284Z,2.40
2023-03-06T04:19:08.517Z,2.40
2023-03-06T04:21:38.015Z,2.40
2023-03-06T04:24:07.926Z,2.40
2023-03-06T04:26:36.356Z,2.30
2023-03-06T04:29:03.453Z,2.30
2023-03-06T04:31:30.789Z,2.20
2023-03-06T04:33:58.629Z,2.20
2023-03-06T04:36:28.667Z,2.20
2023-03-06T04:38:56.596Z,2.20
2023-03-06T04:41:23.620Z,2.10
2023-03-06T04:43:52.415Z,2.20
2023-03-06T04:46:19.418Z,2.20
2023-03-06T04:48:46.171Z,2.20
2023-03-06T04:51:13.854Z,2.20
2023-03-06T04:53:41.458Z,2.20
2023-03-06T04:56:08.479Z,2.20
2023-03-06T04:58:35.549Z,2.20
2023-03-06T05:01:03.494Z,2.30
2023-03-06T05:03:30.403Z,2.20
2023-03-06T05:05:57.456Z,2.10
2023-03-06T05:08:24.362Z,2.10
2023-03-06T05:10:59.448Z,2.10
2023-03-06T05:13:27.592Z,2.10
2023-03-06T05:15:56.683Z,2.00
2023-03-06T05:18:24.446Z,2.00
2023-03-06T05:20:51.724Z,2.00
2023-03-06T05:23:18.414Z,2.00
2023-03-06T05:25:46.933Z,2.00
2023-03-06T05:28:13.722Z,2.00
2023-03-06T05:30:40.534Z,2.00
2023-03-06T05:33:10.889Z,2.00
2023-03-06T05:35:37.957Z,2.00
2023-03-06T05:38:06.829Z,2.00
2023-03-06T05:40:33.750Z,2.00
2023-03-06T05:43:00.596Z,2.00
2023-03-06T05:45:27.391Z,2.00
2023-03-06T05:47:54.520Z,1.90
2023-03-06T05:50:21.273Z,1.90
2023-03-06T05:52:49.637Z,2.00
2023-03-06T05:55:16.605Z,2.00
2023-03-06T05:57:43.469Z,2.00
2023-03-06T06:00:12.436Z,2.00
2023-03-06T06:02:39.862Z,1.90
2023-03-06T06:05:07.360Z,2.00
2023-03-06T06:07:34.141Z,2.00
2023-03-06T06:10:03.790Z,2.00
2023-03-06T06:12:31.159Z,2.00
2023-03-06T06:14:58.561Z,2.00
2023-03-06T06:17:25.506Z,2.00
2023-03-06T06:19:52.422Z,1.90
2023-03-06T06:22:21.172Z,1.90
2023-03-06T06:24:48.021Z,2.00
2023-03-06T06:27:15.175Z,2.00
2023-03-06T06:29:41.997Z,1.90
2023-03-06T06:32:09.558Z,1.90
2023-03-06T06:34:36.477Z,1.90
2023-03-06T06:37:03.387Z,2.00
2023-03-06T06:39:31.053Z,2.00
2023-03-06T06:42:20.209Z,1.90
2023-03-06T06:44:46.537Z,1.90
2023-03-06T06:47:28.921Z,1.90
2023-03-06T06:49:56.766Z,1.90
2023-03-06T06:52:24.810Z,1.90
2023-03-06T06:54:52.275Z,1.90
2023-03-06T06:57:19.199Z,1.90
2023-03-06T06:59:45.999Z,1.90
2023-03-06T07:02:16.648Z,1.90
2023-03-06T07:05:00.241Z,2.00
2023-03-06T07:07:30.860Z,2.00
2023-03-06T07:09:58.063Z,2.00
2023-03-06T07:12:24.988Z,2.10
2023-03-06T07:14:52.031Z,2.00
2023-03-06T07:17:18.927Z,2.00
2023-03-06T07:19:46.047Z,2.10
2023-03-06T07:22:13.662Z,2.00
2023-03-06T07:24:40.953Z,2.10
2023-03-06T07:27:08.134Z,2.20
2023-03-06T07:29:34.953Z,2.30
2023-03-06T07:32:01.942Z,2.30
2023-03-06T07:34:29.202Z,2.30
2023-03-06T07:36:56.074Z,2.30
2023-03-06T07:39:23.444Z,2.20
2023-03-06T07:41:53.190Z,2.30
2023-03-06T07:44:20.132Z,2.30
2023-03-06T07:46:47.893Z,2.30
2023-03-06T07:49:15.255Z,2.20
2023-03-06T07:51:42.298Z,2.20
2023-03-06T07:54:09.085Z,2.20
2023-03-06T07:56:37.218Z,2.20
2023-03-06T07:59:06.110Z,2.20
2023-03-06T08:01:33.406Z,2.20
2023-03-06T08:04:02.050Z,2.30
2023-03-06T08:06:29.508Z,2.30
2023-03-06T08:08:57.296Z,2.40
2023-03-06T08:11:26.925Z,2.40
2023-03-06T08:13:56.581Z,2.40
2023-03-06T08:16:26.430Z,2.50
2023-03-06T08:18:53.830Z,2.60
2023-03-06T08:21:23.989Z,2.50
2023-03-06T08:23:51.015Z,2.70
2023-03-06T08:26:20.547Z,2.80
2023-03-06T08:28:47.512Z,2.90
2023-03-06T08:31:24.615Z,3.10
2023-03-06T08:33:51.934Z,3.10
2023-03-06T08:36:19.655Z,3.20
2023-03-06T08:38:46.582Z,3.20
2023-03-06T08:41:13.930Z,3.20
2023-03-06T08:43:40.833Z,3.20
2023-03-06T08:46:07.870Z,3.30
2023-03-06T08:48:35.070Z,3.30
2023-03-06T08:51:02.145Z,3.30
2023-03-06T08:53:42.194Z,3.40
2023-03-06T08:56:31.976Z,3.40
2023-03-06T08:59:01.355Z,3.30
2023-03-06T09:01:30.596Z,3.20
2023-03-06T09:04:01.315Z,3.20
2023-03-06T09:06:32.163Z,3.10
2023-03-06T09:08:59.926Z,3.10
2023-03-06T09:11:28.388Z,3.00
2023-03-06T09:13:56.534Z,2.90
2023-03-06T09:16:23.655Z,2.90
2023-03-06T09:18:52.993Z,2.80
2023-03-06T09:21:21.518Z,2.90
2023-03-06T09:23:49.376Z,2.90
2023-03-06T09:26:18.081Z,3.00
2023-03-06T09:28:47.428Z,2.90
2023-03-06T09:31:17.101Z,2.90
2023-03-06T09:33:44.763Z,2.80
2023-03-06T09:36:16.512Z,2.70
2023-03-06T09:38:43.529Z,2.60
2023-03-06T09:41:49.870Z,2.60
2023-03-06T09:44:39.044Z,2.50
2023-03-06T09:47:17.615Z,2.50
2023-03-06T09:50:09.128Z,2.50
2023-03-06T09:52:36.768Z,2.60
2023-03-06T09:55:19.552Z,2.60
2023-03-06T09:57:55.789Z,2.70
2023-03-06T10:00:31.644Z,2.70
2023-03-06T10:03:36.930Z,2.80
2023-03-06T10:06:07.187Z,2.90
2023-03-06T10:08:51.205Z,2.90
2023-03-06T10:11:37.487Z,3.00
2023-03-06T10:14:12.053Z,3.00
2023-03-06T10:16:38.962Z,2.80
2023-03-06T10:19:15.028Z,2.80
2023-03-06T10:22:01.126Z,2.60
2023-03-06T10:24:37.859Z,2.50
2023-03-06T10:27:16.509Z,2.40
2023-03-06T10:30:13.327Z,2.40
2023-03-06T10:32:55.577Z,2.30
2023-03-06T10:35:30.784Z,2.20
2023-03-06T10:38:13.018Z,2.20
2023-03-06T10:40:52.228Z,2.10
2023-03-06T10:43:19.287Z,2.20
2023-03-06T10:45:52.062Z,2.20
2023-03-06T10:48:31.432Z,2.30
2023-03-06T10:51:19.999Z,2.30
2023-03-06T10:53:58.366Z,2.40
2023-03-06T10:56:35.782Z,2.60
2023-03-06T10:59:08.014Z,2.70
2023-03-06T11:01:35.946Z,2.70
2023-03-06T11:04:16.752Z,2.90
2023-03-06T11:06:44.061Z,3.00
2023-03-06T11:09:25.272Z,3.10
2023-03-06T11:11:52.552Z,3.20
2023-03-06T11:14:23.267Z,3.30
2023-03-06T11:16:53.820Z,3.30
2023-03-06T11:19:30.369Z,3.10
2023-03-06T11:22:10.081Z,3.10
2023-03-06T11:24:40.664Z,3.10
2023-03-06T11:27:34.535Z,3.10
2023-03-06T11:30:27.026Z,3.00
2023-03-06T11:32:58.329Z,2.90
2023-03-06T11:35:28.501Z,3.00
2023-03-06T11:38:05.051Z,3.00
2023-03-06T11:40:54.811Z,2.90
2023-03-06T11:43:37.047Z,2.90
2023-03-06T11:46:29.569Z,3.00
2023-03-06T11:49:04.162Z,2.90
2023-03-06T11:51:35.809Z,2.80
2023-03-06T11:54:02.927Z,2.60
2023-03-06T11:56:53.519Z,2.60
2023-03-06T11:59:44.489Z,2.60
2023-03-06T12:02:30.241Z,2.50
2023-03-06T12:05:21.221Z,2.40
2023-03-06T12:08:06.490Z,2.40
2023-03-06T12:10:39.814Z,2.40
2023-03-06T12:16:09.211Z,2.40
2023-03-06T12:18:42.281Z,2.60
2023-03-06T12:21:34.762Z,2.70
2023-03-06T12:24:20.352Z,2.70
2023-03-06T12:26:52.584Z,2.90
2023-03-06T12:29:39.304Z,3.10
2023-03-06T12:32:21.530Z,3.30
2023-03-06T12:35:41.952Z,3.40
2023-03-06T12:38:23.989Z,3.60
2023-03-06T12:41:26.293Z,3.90
2023-03-06T12:44:19.408Z,4.00
2023-03-06T12:46:54.798Z,4.00
2023-03-06T12:49:32.645Z,3.90
2023-03-06T12:52:01.336Z,3.70
2023-03-06T12:54:35.717Z,3.80
2023-03-06T12:57:03.653Z,3.70
2023-03-06T12:59:47.217Z,3.50
2023-03-06T13:02:14.326Z,3.50
2023-03-06T13:04:51.342Z,3.60
2023-03-06T13:07:35.785Z,3.50
2023-03-06T13:10:02.716Z,3.50
2023-03-06T13:12:50.155Z,3.40
2023-03-06T13:15:56.544Z,3.20
2023-03-06T13:18:23.711Z,3.20
2023-03-06T13:20:52.469Z,3.10
2023-03-06T13:23:39.151Z,3.10
2023-03-06T13:26:24.763Z,3.20
2023-03-06T13:28:54.063Z,3.20
2023-03-06T13:31:33.375Z,3.10
2023-03-06T13:34:02.411Z,3.10
2023-03-06T13:36:33.420Z,3.00
2023-03-06T13:39:10.249Z,3.10
2023-03-06T13:41:46.162Z,3.10
2023-03-06T13:44:25.869Z,3.20
2023-03-06T13:46:57.204Z,3.10
2023-03-06T13:49:25.090Z,3.20
2023-03-06T13:51:51.936Z,3.20
2023-03-06T13:54:26.439Z,3.20
2023-03-06T13:57:07.566Z,3.20
2023-03-06T14:00:03.177Z,3.30
2023-03-06T14:02:58.616Z,3.30
2023-03-06T14:05:44.708Z,3.20
2023-03-06T14:08:19.705Z,3.10
2023-03-06T14:10:49.691Z,3.10
2023-03-06T14:13:20.390Z,3.00
2023-03-06T14:15:55.378Z,2.90
2023-03-06T14:18:34.255Z,3.00
2023-03-06T14:21:04.619Z,3.00
2023-03-06T14:23:33.886Z,2.90
2023-03-06T14:26:21.778Z,2.90
2023-03-06T14:29:00.359Z,2.90
2023-03-06T14:31:41.611Z,3.00
2023-03-06T14:34:16.964Z,3.00
2023-03-06T14:36:49.707Z,3.00
2023-03-06T14:39:31.565Z,3.10
2023-03-06T14:42:21.963Z,3.10
2023-03-06T14:44:50.127Z,3.10
2023-03-06T14:47:27.732Z,3.10
2023-03-06T14:50:20.087Z,3.10
2023-03-06T14:52:48.112Z,3.00
2023-03-06T14:55:19.679Z,3.10
2023-03-06T14:57:55.418Z,3.00
2023-03-06T15:00:23.451Z,3.00
2023-03-06T15:02:51.728Z,3.10
2023-03-06T15:05:28.985Z,3.00
2023-03-06T15:08:01.138Z,2.90
2023-03-06T15:10:31.385Z,2.80
2023-03-06T15:13:29.192Z,2.60
2023-03-06T15:16:05.742Z,2.40
2023-03-06T15:18:35.677Z,2.30
2023-03-06T15:21:18.605Z,2.30
2023-03-06T15:23:50.007Z,2.30
2023-03-06T15:26:29.129Z,2.30
2023-03-06T15:29:08.323Z,2.30
2023-03-06T15:31:43.599Z,2.30
2023-03-06T15:34:10.501Z,2.40
2023-03-06T15:36:45.634Z,2.40
2023-03-06T15:39:29.984Z,2.50
2023-03-06T15:41:58.188Z,2.50
2023-03-06T15:44:25.266Z,2.40
2023-03-06T15:46:59.224Z,2.40
2023-03-06T15:49:33.316Z,2.40
2023-03-06T15:52:01.096Z,2.40
2023-03-06T15:54:27.884Z,2.40
2023-03-06T15:56:55.802Z,2.40
2023-03-06T15:59:30.964Z,2.40
2023-03-06T16:01:58.404Z,2.50
2023-03-06T16:04:25.302Z,2.50
2023-03-06T16:06:52.246Z,2.50
2023-03-06T16:09:19.179Z,2.50
2023-03-06T16:11:46.943Z,2.50
2023-03-06T16:14:32.621Z,2.50
2023-03-06T16:16:59.967Z,2.50
2023-03-06T16:19:27.786Z,2.50
2023-03-06T16:21:55.922Z,2.60
2023-03-06T16:24:22.995Z,2.50
2023-03-06T16:26:51.481Z,2.60
2023-03-06T16:29:23.633Z,2.50
2023-03-06T16:31:51.156Z,2.50
2023-03-06T16:34:19.911Z,2.40
2023-03-06T16:36:48.108Z,2.50
2023-03-06T16:39:16.596Z,2.40
2023-03-06T16:41:46.240Z,2.50
2023-03-06T16:44:13.581Z,2.40
2023-03-06T16:46:45.877Z,2.40
2023-03-06T16:49:19.253Z,2.40
2023-03-06T16:51:46.577Z,2.40
2023-03-06T16:54:14.850Z,2.30
2023-03-06T16:56:42.315Z,2.40
2023-03-06T16:59:09.306Z,2.40
2023-03-06T17:01:36.762Z,2.30
2023-03-06T17:04:03.878Z,2.30
2023-03-06T17:06:30.987Z,2.30
2023-03-06T17:08:58.238Z,2.30
2023-03-06T17:11:25.196Z,2.30
2023-03-06T17:13:52.871Z,2.20
2023-03-06T17:16:19.738Z,2.20
2023-03-06T17:18:47.213Z,2.20
2023-03-06T17:21:17.388Z,2.20
2023-03-06T17:23:44.714Z,2.20
2023-03-06T17:26:13.630Z,2.20
2023-03-06T17:28:41.884Z,2.20
2023-03-06T17:31:18.673Z,2.20
2023-03-06T17:33:46.096Z,2.20
2023-03-06T17:36:14.617Z,2.10
2023-03-06T17:38:42.960Z,2.10
2023-03-06T17:41:11.990Z,2.20
2023-03-06T17:43:44.288Z,2.20
2023-03-06T17:46:13.208Z,2.20
2023-03-06T17:48:40.365Z,2.10
2023-03-06T17:51:07.651Z,2.10
2023-03-06T17:53:34.496Z,2.10
2023-03-06T17:56:07.802Z,2.10
2023-03-06T17:58:36.980Z,2.10
2023-03-06T18:01:33.521Z,2.20
2023-03-06T18:04:02.364Z,2.10
2023-03-06T18:06:33.329Z,2.10
2023-03-06T18:09:01.302Z,2.10
2023-03-06T18:11:30.414Z,2.10
2023-03-06T18:13:57.676Z,2.10
2023-03-06T18:16:27.986Z,2.10
2023-03-06T18:18:56.935Z,2.10
2023-03-06T18:21:24.427Z,2.10
2023-03-06T18:23:51.415Z,2.20
2023-03-06T18:26:23.762Z,2.10
2023-03-06T18:28:59.136Z,2.10
2023-03-06T18:31:29.236Z,2.10
2023-03-06T18:33:59.295Z,2.00
2023-03-06T18:36:28.610Z,2.10
2023-03-06T18:38:56.779Z,2.00
2023-03-06T18:41:23.763Z,2.00
2023-03-06T18:43:58.781Z,2.00
2023-03-06T18:46:26.691Z,2.10
2023-03-06T18:48:55.343Z,2.00
2023-03-06T18:51:22.572Z,2.00
2023-03-06T18:53:49.887Z,2.00
2023-03-06T18:56:21.267Z,2.00
2023-03-06T18:58:49.091Z,2.00
2023-03-06T19:01:16.953Z,2.00
2023-03-06T19:03:46.373Z,1.90
2023-03-06T19:06:16.836Z,1.80
2023-03-06T19:08:46.131Z,1.90
2023-03-06T19:11:15.395Z,1.90
2023-03-06T19:13:43.141Z,1.90
2023-03-06T19:16:18.221Z,1.90
2023-03-06T19:18:45.041Z,2.00
2023-03-06T19:21:14.356Z,1.90
2023-03-06T19:23:41.869Z,1.90
2023-03-06T19:26:09.553Z,1.90
2023-03-06T19:28:38.520Z,1.80
2023-03-06T19:31:13.001Z,1.90
2023-03-06T19:33:40.203Z,1.90
2023-03-06T19:36:09.014Z,1.90
2023-03-06T19:38:36.302Z,1.90
2023-03-06T19:41:04.996Z,1.90
2023-03-06T19:43:32.728Z,1.90
2023-03-06T19:46:00.673Z,1.90
2023-03-06T19:48:27.558Z,1.90
2023-03-06T19:50:54.280Z,1.90
2023-03-06T19:53:22.432Z,1.90
2023-03-06T19:55:49.730Z,1.90
2023-03-06T19:58:16.572Z,1.90
2023-03-06T20:00:44.010Z,1.90
2023-03-06T20:03:11.701Z,1.90
2023-03-06T20:05:45.856Z,1.90
2023-03-06T20:08:13.048Z,1.90
2023-03-06T20:10:40.645Z,1.90
2023-03-06T20:13:07.589Z,2.00
2023-03-06T20:15:35.335Z,2.00
2023-03-06T20:18:02.421Z,2.00
2023-03-06T20:20:29.312Z,2.00
2023-03-06T20:22:56.326Z,2.00
2023-03-06T20:25:23.100Z,1.90
2023-03-06T20:27:50.465Z,2.00
2023-03-06T20:30:17.850Z,2.00
2023-03-06T20:32:45.832Z,2.00
2023-03-06T20:35:13.837Z,2.00
2023-03-06T20:37:41.547Z,2.00
2023-03-06T20:40:09.256Z,2.00
2023-03-06T20:42:36.044Z,2.00
2023-03-06T20:45:04.875Z,2.00
2023-03-06T20:47:35.295Z,2.00
2023-03-06T20:50:02.065Z,2.10
2023-03-06T20:52:28.770Z,2.00
2023-03-06T20:54:55.537Z,2.00
2023-03-06T20:57:22.509Z,2.00
2023-03-06T20:59:49.423Z,2.00
2023-03-06T21:02:16.299Z,1.90
2023-03-06T21:04:43.603Z,1.90
2023-03-06T21:07:10.887Z,2.00
2023-03-06T21:09:39.596Z,1.90
2023-03-06T21:12:07.144Z,1.80
2023-03-06T21:14:34.625Z,1.80
2023-03-06T21:17:01.401Z,1.90
2023-03-06T21:19:28.538Z,1.90
2023-03-06T21:21:55.563Z,1.90
2023-03-06T21:24:22.559Z,1.90
2023-03-06T21:26:51.180Z,1.80
2023-03-06T21:29:18.157Z,1.80
2023-03-06T21:31:44.957Z,1.80
2023-03-06T21:34:12.409Z,1.80
2023-03-06T21:36:39.652Z,1.80
2023-03-06T21:39:08.052Z,1.70
2023-03-06T21:41:38.874Z,1.80
2023-03-06T21:44:08.138Z,1.80
2023-03-06T21:46:35.806Z,1.80
2023-03-06T21:49:06.902Z,1.80
2023-03-06T21:51:33.900Z,1.80
2023-03-06T21:54:05.452Z,1.80
2023-03-06T21:56:33.594Z,1.80
2023-03-06T21:59:00.604Z,1.80
2023-03-06T22:01:28.956Z,1.70
2023-03-06T22:03:57.572Z,1.80
2023-03-06T22:06:27.587Z,1.80
2023-03-06T22:08:57.044Z,1.70
2023-03-06T22:11:25.311Z,1.80
2023-03-06T22:13:55.864Z,1.70
2023-03-06T22:16:22.957Z,1.80
2023-03-06T22:18:51.821Z,1.80
2023-03-06T22:21:20.542Z,1.80
2023-03-06T22:23:57.592Z,1.80
2023-03-06T22:26:24.911Z,1.90
2023-03-06T22:28:51.843Z,1.80
2023-03-06T22:31:26.432Z,1.80
2023-03-06T22:33:54.501Z,1.80
2023-03-06T22:36:22.536Z,1.90
2023-03-06T22:38:49.897Z,1.80
2023-03-06T22:41:18.867Z,1.80
2023-03-06T22:43:46.761Z,1.80
2023-03-06T22:46:19.225Z,1.80
2023-03-06T22:48:46.638Z,1.80
2023-03-06T22:51:20.137Z,1.90
2023-03-06T22:53:48.217Z,1.90
2023-03-06T22:56:20.606Z,1.90
2023-03-06T22:58:48.341Z,1.90
2023-03-06T23:01:23.544Z,1.90
2023-03-06T23:03:54.649Z,1.90
2023-03-06T23:06:27.044Z,1.90
2023-03-06T23:08:56.640Z,2.00
2023-03-06T23:11:24.577Z,2.00
2023-03-06T23:13:51.790Z,1.90
2023-03-06T23:16:18.709Z,1.90
2023-03-06T23:18:45.859Z,1.90
2023-03-06T23:21:16.467Z,2.00
2023-03-06T23:23:44.433Z,2.00
2023-03-06T23:26:13.928Z,1.90
2023-03-06T23:28:41.976Z,2.00
2023-03-06T23:31:11.043Z,2.00
2023-03-06T23:33:39.745Z,2.00
2023-03-06T23:36:10.640Z,1.90
2023-03-06T23:38:38.396Z,2.00
2023-03-06T23:41:11.923Z,2.10
2023-03-06T23:43:39.154Z,2.00
2023-03-06T23:46:07.732Z,2.00
2023-03-06T23:48:36.699Z,2.00
2023-03-06T23:51:12.064Z,2.10
2023-03-06T23:53:38.812Z,2.00
2023-03-06T23:56:07.181Z,2.00
2023-03-06T23:58:34.475Z,2.00
